createdAt,value
2018-05-11T00:02:26.494Z,99.90
2018-05-11T00:04:53.954Z,99.90
2018-05-11T00:07:21.414Z,99.90
2018-05-11T00:09:48.879Z,99.90
2018-05-11T00:12:16.337Z,99.90
2018-05-11T00:14:43.790Z,99.90
2018-05-11T00:17:11.241Z,99.90
2018-05-11T00:19:38.697Z,99.90
2018-05-11T00:22:06.159Z,99.90
2018-05-11T00:24:33.615Z,99.90
2018-05-11T00:27:01.106Z,99.90
2018-05-11T00:29:29.308Z,99.90
2018-05-11T00:31:56.767Z,99.90
2018-05-11T00:34:24.231Z,99.90
2018-05-11T00:36:51.686Z,99.90
2018-05-11T00:39:19.850Z,99.90
2018-05-11T00:41:47.309Z,99.90
2018-05-11T00:44:14.774Z,99.90
2018-05-11T00:46:42.222Z,99.90
2018-05-11T00:49:09.678Z,99.90
2018-05-11T00:51:37.143Z,99.90
2018-05-11T00:54:04.594Z,99.90
2018-05-11T00:56:32.058Z,99.90
2018-05-11T00:58:59.510Z,99.90
2018-05-11T01:01:27.299Z,99.90
2018-05-11T01:03:55.519Z,99.90
2018-05-11T01:06:23.727Z,99.90
2018-05-11T01:08:51.178Z,99.90
2018-05-11T01:11:18.634Z,99.90
2018-05-11T01:13:46.430Z,99.90
2018-05-11T01:16:13.879Z,99.90
2018-05-11T01:18:41.344Z,99.90
2018-05-11T01:21:08.794Z,99.90
2018-05-11T01:23:37.022Z,99.90
2018-05-11T01:26:04.485Z,99.90
2018-05-11T01:28:32.698Z,99.90
2018-05-11T01:31:00.150Z,99.90
2018-05-11T01:33:27.594Z,99.90
2018-05-11T01:35:56.703Z,99.90
2018-05-11T01:38:24.157Z,99.90
2018-05-11T01:40:51.616Z,99.90
2018-05-11T01:43:19.058Z,99.90
2018-05-11T01:45:46.507Z,99.90
2018-05-11T01:48:13.957Z,99.90
2018-05-11T01:50:41.427Z,99.90
2018-05-11T01:53:08.875Z,99.90
2018-05-11T01:55:37.273Z,99.90
2018-05-11T01:58:05.447Z,99.90
2018-05-11T02:00:33.743Z,99.90
2018-05-11T02:03:01.190Z,99.90
2018-05-11T02:05:28.638Z,99.90
2018-05-11T02:07:56.583Z,99.90
2018-05-11T02:10:24.055Z,99.90
2018-05-11T02:12:51.504Z,99.90
2018-05-11T02:15:18.961Z,99.90
2018-05-11T02:17:46.418Z,99.90
2018-05-11T02:20:13.861Z,99.90
2018-05-11T02:22:41.318Z,99.90
2018-05-11T02:25:08.761Z,99.90
2018-05-11T02:27:36.982Z,99.90
2018-05-11T02:30:04.431Z,99.90
2018-05-11T02:32:31.900Z,99.90
2018-05-11T02:34:59.353Z,99.90
2018-05-11T02:37:26.814Z,99.90
2018-05-11T02:39:54.604Z,99.90
2018-05-11T02:42:22.046Z,99.90
2018-05-11T02:44:49.510Z,99.90
2018-05-11T02:47:16.950Z,99.90
2018-05-11T02:49:44.409Z,99.90
2018-05-11T02:52:11.868Z,99.90
2018-05-11T02:54:39.407Z,99.90
2018-05-11T02:57:06.850Z,99.90
2018-05-11T02:59:35.239Z,99.90
2018-05-11T03:02:03.513Z,99.90
2018-05-11T03:04:30.915Z,99.90
2018-05-11T03:06:58.382Z,99.90
2018-05-11T03:09:25.835Z,99.90
2018-05-11T03:11:53.815Z,99.90
2018-05-11T03:14:21.254Z,99.90
2018-05-11T03:16:48.712Z,99.90
2018-05-11T03:19:16.164Z,99.90
2018-05-11T03:21:43.628Z,99.90
2018-05-11T03:24:11.078Z,99.90
2018-05-11T03:26:38.542Z,99.90
2018-05-11T03:29:05.992Z,99.90
2018-05-11T03:31:33.443Z,99.90
2018-05-11T03:34:00.886Z,99.90
2018-05-11T03:36:28.370Z,99.90
2018-05-11T03:38:55.810Z,99.90
2018-05-11T03:41:23.259Z,99.90
2018-05-11T03:43:50.718Z,99.90
2018-05-11T03:46:18.170Z,99.90
2018-05-11T03:48:45.630Z,99.90
2018-05-11T03:51:13.085Z,99.90
2018-05-11T03:53:40.538Z,99.90
2018-05-11T03:56:07.981Z,99.90
2018-05-11T03:58:35.538Z,99.90
2018-05-11T04:01:16.771Z,99.90
2018-05-11T04:03:56.107Z,99.90
2018-05-11T04:06:35.627Z,99.90
2018-05-11T04:09:02.993Z,99.90
2018-05-11T04:11:30.435Z,99.90
2018-05-11T04:13:57.893Z,99.90
2018-05-11T04:16:26.177Z,99.90
2018-05-11T04:18:54.618Z,99.90
2018-05-11T04:21:22.082Z,99.90
2018-05-11T04:23:49.544Z,99.90
2018-05-11T04:26:17.013Z,99.90
2018-05-11T04:28:44.491Z,99.90
2018-05-11T04:31:11.928Z,99.90
2018-05-11T04:33:39.417Z,99.90
2018-05-11T04:36:06.859Z,99.90
2018-05-11T04:38:34.318Z,99.90
2018-05-11T04:41:01.770Z,99.90
2018-05-11T04:43:29.231Z,99.90
2018-05-11T04:45:56.680Z,99.90
2018-05-11T04:48:24.130Z,99.90
2018-05-11T04:50:51.571Z,99.90
2018-05-11T04:53:19.018Z,99.90
2018-05-11T04:55:46.484Z,99.90
2018-05-11T04:58:13.934Z,99.90
2018-05-11T05:00:41.391Z,99.90
2018-05-11T05:03:09.371Z,99.90
2018-05-11T05:05:36.826Z,99.90
2018-05-11T05:08:04.282Z,99.90
2018-05-11T05:10:31.742Z,99.90
2018-05-11T05:12:59.194Z,99.90
2018-05-11T05:15:26.655Z,99.90
2018-05-11T05:17:54.474Z,99.90
2018-05-11T05:20:22.694Z,99.90
2018-05-11T05:22:50.154Z,99.90
2018-05-11T05:25:17.600Z,99.90
2018-05-11T05:27:45.051Z,99.90
2018-05-11T05:30:12.494Z,99.90
2018-05-11T05:32:39.991Z,99.90
2018-05-11T05:35:07.439Z,99.90
2018-05-11T05:37:34.889Z,99.90
2018-05-11T05:40:02.347Z,99.90
2018-05-11T05:42:29.820Z,99.90
2018-05-11T05:44:57.263Z,99.90
2018-05-11T05:47:24.714Z,99.90
2018-05-11T05:49:52.166Z,99.90
2018-05-11T05:52:19.617Z,99.90
2018-05-11T05:54:47.081Z,99.90
2018-05-11T05:57:14.535Z,99.90
2018-05-11T05:59:41.978Z,99.90
2018-05-11T06:02:09.425Z,99.90
2018-05-11T06:04:37.640Z,99.90
2018-05-11T06:07:05.182Z,99.90
2018-05-11T06:09:32.641Z,99.90
2018-05-11T06:12:00.474Z,99.90
2018-05-11T06:14:28.695Z,99.90
2018-05-11T06:16:56.139Z,99.90
2018-05-11T06:19:24.185Z,99.90
2018-05-11T06:21:51.629Z,99.90
2018-05-11T06:24:19.854Z,99.90
2018-05-11T06:26:47.301Z,99.90
2018-05-11T06:29:15.061Z,99.90
2018-05-11T06:31:42.505Z,99.90
2018-05-11T06:34:10.526Z,99.90
2018-05-11T06:36:37.922Z,99.90
2018-05-11T06:39:05.374Z,99.90
2018-05-11T06:41:33.854Z,99.90
2018-05-11T06:44:02.702Z,99.90
2018-05-11T06:46:30.153Z,99.90
2018-05-11T06:48:57.626Z,99.90
2018-05-11T06:51:25.075Z,99.90
2018-05-11T06:53:52.530Z,99.90
2018-05-11T06:56:19.974Z,99.90
2018-05-11T06:58:47.440Z,99.90
2018-05-11T07:01:14.882Z,99.90
2018-05-11T07:03:42.358Z,99.90
2018-05-11T07:06:09.803Z,99.90
2018-05-11T07:08:37.254Z,99.90
2018-05-11T07:11:04.707Z,99.90
2018-05-11T07:13:32.470Z,99.90
2018-05-11T07:16:00.706Z,99.90
2018-05-11T07:18:28.927Z,99.90
2018-05-11T07:20:56.386Z,99.90
2018-05-11T07:23:23.825Z,99.90
2018-05-11T07:25:51.332Z,99.90
2018-05-11T07:28:18.744Z,99.90
2018-05-11T07:30:46.188Z,99.90
2018-05-11T07:33:13.641Z,99.90
2018-05-11T07:35:41.111Z,99.90
2018-05-11T07:38:08.546Z,99.90
2018-05-11T07:40:36.005Z,99.90
2018-05-11T07:43:03.955Z,99.90
2018-05-11T07:45:31.335Z,99.90
2018-05-11T07:47:58.778Z,99.90
2018-05-11T07:50:26.241Z,99.90
2018-05-11T07:52:54.411Z,99.90
2018-05-11T07:55:22.628Z,99.90
2018-05-11T07:57:50.082Z,99.90
2018-05-11T08:00:20.124Z,99.90
2018-05-11T08:02:47.625Z,99.90
2018-05-11T08:05:15.064Z,99.90
2018-05-11T08:07:43.270Z,99.90
2018-05-11T08:10:10.729Z,99.90
2018-05-11T08:12:38.286Z,99.90
2018-05-11T08:15:05.734Z,99.90
2018-05-11T08:17:33.543Z,99.90
2018-05-11T08:20:01.015Z,99.90
2018-05-11T08:22:28.459Z,99.90
2018-05-11T08:24:55.907Z,99.90
2018-05-11T08:27:23.350Z,99.90
2018-05-11T08:29:50.817Z,99.90
2018-05-11T08:32:19.078Z,99.90
2018-05-11T08:34:46.599Z,99.90
2018-05-11T08:37:14.331Z,99.90
2018-05-11T08:39:41.770Z,99.90
2018-05-11T08:42:09.223Z,99.90
2018-05-11T08:44:36.674Z,99.90
2018-05-11T08:47:04.126Z,99.90
2018-05-11T08:49:31.575Z,99.90
2018-05-11T08:51:59.066Z,99.90
2018-05-11T08:54:26.560Z,99.90
2018-05-11T08:56:54.770Z,99.90
2018-05-11T08:59:22.217Z,99.90
2018-05-11T09:01:50.622Z,99.90
2018-05-11T09:04:18.078Z,99.90
2018-05-11T09:06:45.851Z,98.20
2018-05-11T09:09:13.345Z,95.50
2018-05-11T09:11:41.594Z,92.80
2018-05-11T09:14:09.019Z,92.70
2018-05-11T09:16:36.465Z,92.10
2018-05-11T09:19:04.343Z,90.90
2018-05-11T09:21:33.278Z,91.30
2018-05-11T09:24:00.735Z,90.50
2018-05-11T09:26:28.186Z,90.20
2018-05-11T09:28:55.637Z,90.30
2018-05-11T09:31:23.087Z,89.40
2018-05-11T09:33:50.535Z,85.60
2018-05-11T09:36:18.054Z,85.10
2018-05-11T09:38:45.506Z,87.30
2018-05-11T09:41:13.726Z,87.30
2018-05-11T09:43:41.195Z,87.30
2018-05-11T09:46:08.626Z,86.20
2018-05-11T09:48:36.074Z,82.90
2018-05-11T09:51:03.546Z,85.30
2018-05-11T09:53:30.998Z,86.60
2018-05-11T09:55:58.456Z,83.80
2018-05-11T09:58:25.911Z,83.80
2018-05-11T10:00:54.203Z,84.90
2018-05-11T10:03:21.546Z,83.40
2018-05-11T10:05:49.009Z,84.80
2018-05-11T10:08:16.446Z,83.10
2018-05-11T10:10:43.919Z,83.10
2018-05-11T10:13:11.358Z,84.60
2018-05-11T10:15:38.817Z,85.30
2018-05-11T10:18:06.259Z,85.70
2018-05-11T10:20:35.315Z,86.40
2018-05-11T10:23:02.767Z,84.30
2018-05-11T10:25:30.214Z,85.00
2018-05-11T10:27:58.439Z,85.60
2018-05-11T10:30:25.891Z,85.90
2018-05-11T10:32:54.870Z,83.70
2018-05-11T10:35:23.078Z,83.50
2018-05-11T10:37:50.535Z,83.50
2018-05-11T10:40:18.438Z,83.20
2018-05-11T10:42:45.887Z,82.50
2018-05-11T10:45:13.346Z,80.10
2018-05-11T10:47:40.793Z,78.60
2018-05-11T10:50:08.266Z,77.00
2018-05-11T10:52:35.694Z,79.00
2018-05-11T10:55:03.852Z,80.40
2018-05-11T10:57:31.286Z,79.80
2018-05-11T10:59:59.831Z,81.10
2018-05-11T11:02:27.311Z,81.30
2018-05-11T11:04:54.735Z,76.00
2018-05-11T11:07:22.197Z,78.30
2018-05-11T11:09:50.420Z,77.00
2018-05-11T11:12:19.074Z,78.90
2018-05-11T11:14:46.538Z,78.90
2018-05-11T11:17:13.981Z,78.00
2018-05-11T11:19:41.439Z,78.80
2018-05-11T11:22:08.886Z,73.80
2018-05-11T11:24:36.334Z,74.10
2018-05-11T11:27:03.791Z,75.00
2018-05-11T11:29:31.248Z,75.10
2018-05-11T11:31:58.756Z,74.70
2018-05-11T11:34:26.148Z,73.80
2018-05-11T11:36:53.599Z,69.20
2018-05-11T11:39:21.047Z,72.70
2018-05-11T11:41:48.618Z,68.70
2018-05-11T11:44:16.935Z,69.50
2018-05-11T11:46:44.386Z,68.90
2018-05-11T11:49:11.834Z,69.60
2018-05-11T11:51:39.289Z,73.90
2018-05-11T11:54:06.738Z,73.10
2018-05-11T11:56:34.180Z,71.40
2018-05-11T11:59:01.619Z,68.50
2018-05-11T12:01:30.008Z,68.90
2018-05-11T12:03:57.458Z,68.30
2018-05-11T12:06:24.926Z,70.20
2018-05-11T12:08:52.823Z,69.00
2018-05-11T12:11:21.058Z,68.90
2018-05-11T12:13:48.505Z,72.30
2018-05-11T12:16:15.967Z,66.80
2018-05-11T12:18:43.424Z,67.80
2018-05-11T12:21:10.859Z,68.20
2018-05-11T12:23:39.081Z,64.00
2018-05-11T12:26:06.523Z,64.00
2018-05-11T12:28:34.783Z,61.90
2018-05-11T12:31:02.225Z,62.60
2018-05-11T12:33:30.467Z,68.60
2018-05-11T12:35:57.906Z,68.60
2018-05-11T12:38:25.350Z,69.10
2018-05-11T12:40:52.806Z,69.80
2018-05-11T12:43:20.262Z,72.40
2018-05-11T12:45:47.718Z,71.20
2018-05-11T12:48:15.183Z,69.60
2018-05-11T12:50:42.973Z,71.20
2018-05-11T12:53:10.431Z,69.40
2018-05-11T12:55:37.871Z,72.30
2018-05-11T12:58:05.646Z,73.10
2018-05-11T13:00:33.090Z,76.20
2018-05-11T13:03:00.559Z,75.60
2018-05-11T13:05:28.008Z,77.20
2018-05-11T13:07:55.451Z,74.50
2018-05-11T13:10:22.917Z,75.00
2018-05-11T13:12:50.397Z,71.40
2018-05-11T13:15:17.819Z,71.90
2018-05-11T13:17:45.726Z,73.90
2018-05-11T13:20:13.191Z,73.20
2018-05-11T13:22:40.638Z,71.90
2018-05-11T13:25:08.095Z,76.20
2018-05-11T13:27:35.541Z,74.60
2018-05-11T13:30:02.988Z,75.10
2018-05-11T13:32:30.766Z,78.20
2018-05-11T13:34:58.233Z,76.80
2018-05-11T13:37:25.685Z,74.40
2018-05-11T13:39:53.148Z,73.30
2018-05-11T13:42:20.610Z,74.10
2018-05-11T13:44:48.062Z,72.80
2018-05-11T13:47:15.511Z,73.20
2018-05-11T13:49:42.956Z,76.70
2018-05-11T13:52:10.418Z,79.50
2018-05-11T13:54:38.631Z,82.40
2018-05-11T13:57:06.846Z,80.40
2018-05-11T13:59:34.309Z,80.30
2018-05-11T14:02:01.757Z,82.20
2018-05-11T14:04:29.216Z,80.10
2018-05-11T14:06:57.126Z,83.10
2018-05-11T14:09:24.597Z,80.90
2018-05-11T14:11:52.034Z,79.40
2018-05-11T14:14:19.491Z,80.70
2018-05-11T14:16:46.946Z,81.30
2018-05-11T14:19:14.696Z,79.90
2018-05-11T14:21:42.139Z,78.30
2018-05-11T14:24:09.587Z,78.50
2018-05-11T14:26:37.043Z,80.70
2018-05-11T14:29:05.366Z,78.70
2018-05-11T14:31:32.826Z,77.20
2018-05-11T14:34:00.342Z,80.50
2018-05-11T14:36:27.790Z,80.10
2018-05-11T14:38:55.245Z,80.50
2018-05-11T14:41:22.702Z,79.20
2018-05-11T14:43:50.161Z,80.50
2018-05-11T14:46:17.622Z,78.90
2018-05-11T14:48:45.473Z,81.00
2018-05-11T14:51:12.937Z,82.80
2018-05-11T14:53:40.369Z,82.10
2018-05-11T14:56:08.586Z,84.60
2018-05-11T14:58:36.069Z,84.70
2018-05-11T15:01:03.506Z,83.30
2018-05-11T15:03:30.979Z,83.40
2018-05-11T15:05:58.449Z,85.30
2018-05-11T15:08:25.906Z,84.80
2018-05-11T15:10:53.351Z,84.20
2018-05-11T15:13:20.794Z,84.60
2018-05-11T15:15:48.703Z,83.30
2018-05-11T15:18:16.911Z,88.60
2018-05-11T15:20:44.365Z,88.50
2018-05-11T15:23:12.510Z,86.10
2018-05-11T15:25:41.662Z,86.30
2018-05-11T15:28:09.115Z,86.30
2018-05-11T15:30:36.553Z,88.90
2018-05-11T15:33:04.010Z,87.90
2018-05-11T15:35:31.472Z,89.00
2018-05-11T15:37:58.960Z,89.90
2018-05-11T15:40:26.647Z,88.10
2018-05-11T15:42:54.759Z,90.10
2018-05-11T15:45:22.205Z,90.00
2018-05-11T15:47:49.652Z,91.20
2018-05-11T15:50:17.190Z,89.60
2018-05-11T15:52:45.400Z,90.80
2018-05-11T15:55:12.843Z,90.70
2018-05-11T15:57:40.306Z,91.00
2018-05-11T16:00:07.754Z,91.30
2018-05-11T16:02:35.212Z,91.00
2018-05-11T16:05:03.430Z,91.10
2018-05-11T16:07:30.891Z,91.10
2018-05-11T16:09:58.338Z,90.30
2018-05-11T16:12:25.791Z,91.00
2018-05-11T16:14:53.234Z,90.30
2018-05-11T16:17:21.179Z,91.00
2018-05-11T16:19:49.402Z,91.60
2018-05-11T16:22:16.850Z,91.60
2018-05-11T16:24:44.291Z,91.80
2018-05-11T16:27:11.751Z,91.50
2018-05-11T16:29:39.207Z,91.50
2018-05-11T16:32:06.663Z,91.50
2018-05-11T16:34:35.114Z,91.30
2018-05-11T16:37:03.341Z,91.80
2018-05-11T16:39:31.116Z,91.70
2018-05-11T16:41:58.554Z,91.90
2018-05-11T16:44:25.994Z,91.80
2018-05-11T16:46:53.456Z,92.40
2018-05-11T16:49:20.894Z,91.70
2018-05-11T16:51:48.342Z,92.10
2018-05-11T16:54:15.786Z,92.40
2018-05-11T16:56:44.015Z,93.10
2018-05-11T16:59:11.463Z,93.00
2018-05-11T17:01:39.521Z,92.80
2018-05-11T17:04:06.970Z,93.50
2018-05-11T17:06:34.411Z,93.30
2018-05-11T17:09:02.630Z,93.90
2018-05-11T17:11:30.085Z,93.80
2018-05-11T17:13:58.302Z,93.50
2018-05-11T17:16:25.852Z,93.90
2018-05-11T17:18:54.222Z,94.70
2018-05-11T17:21:21.666Z,94.70
2018-05-11T17:23:49.114Z,94.70
2018-05-11T17:26:16.581Z,94.70
2018-05-11T17:28:44.037Z,94.90
2018-05-11T17:31:11.498Z,94.90
2018-05-11T17:33:38.941Z,95.70
2018-05-11T17:36:06.386Z,96.10
2018-05-11T17:38:33.858Z,97.10
2018-05-11T17:41:01.314Z,94.90
2018-05-11T17:43:28.754Z,96.90
2018-05-11T17:45:56.207Z,98.00
2018-05-11T17:48:23.647Z,97.40
2018-05-11T17:50:51.107Z,99.10
2018-05-11T17:53:18.550Z,98.30
2018-05-11T17:55:46.783Z,98.60
2018-05-11T17:58:14.223Z,98.60
2018-05-11T18:00:41.670Z,99.90
2018-05-11T18:03:09.178Z,99.70
2018-05-11T18:05:36.576Z,99.90
2018-05-11T18:08:04.024Z,99.90
2018-05-11T18:10:31.474Z,99.90
2018-05-11T18:12:58.939Z,99.90
2018-05-11T18:15:26.394Z,99.90
2018-05-11T18:17:53.842Z,99.90
2018-05-11T18:20:21.290Z,99.90
2018-05-11T18:22:49.527Z,99.90
2018-05-11T18:25:16.966Z,99.90
2018-05-11T18:27:44.434Z,99.90
2018-05-11T18:30:11.867Z,99.90
2018-05-11T18:32:39.326Z,99.90
2018-05-11T18:35:06.762Z,99.90
2018-05-11T18:37:34.226Z,99.90
2018-05-11T18:40:01.694Z,99.90
2018-05-11T18:42:29.125Z,99.90
2018-05-11T18:44:57.351Z,99.90
2018-05-11T18:47:24.795Z,99.90
2018-05-11T18:49:52.240Z,99.90
2018-05-11T18:52:19.699Z,99.90
2018-05-11T18:54:47.585Z,99.90
2018-05-11T18:57:15.050Z,99.90
2018-05-11T18:59:42.515Z,99.90
2018-05-11T19:02:09.962Z,99.90
2018-05-11T19:04:37.410Z,99.90
2018-05-11T19:07:04.854Z,99.90
2018-05-11T19:09:32.408Z,99.90
2018-05-11T19:11:59.843Z,99.90
2018-05-11T19:14:27.295Z,99.90
2018-05-11T19:16:55.511Z,99.90
2018-05-11T19:19:22.954Z,99.90
2018-05-11T19:21:50.426Z,99.90
2018-05-11T19:24:17.875Z,99.90
2018-05-11T19:26:45.323Z,99.90
2018-05-11T19:29:12.786Z,99.90
2018-05-11T19:31:40.228Z,99.90
2018-05-11T19:34:07.675Z,99.90
2018-05-11T19:36:35.134Z,99.90
2018-05-11T19:39:02.630Z,99.90
2018-05-11T19:41:30.082Z,99.90
2018-05-11T19:43:57.862Z,99.90
2018-05-11T19:46:25.309Z,99.90
2018-05-11T19:48:52.749Z,99.90
2018-05-11T19:51:20.207Z,99.90
2018-05-11T19:53:47.658Z,99.90
2018-05-11T19:56:15.274Z,99.90
2018-05-11T19:58:42.715Z,99.90
2018-05-11T20:01:10.177Z,99.90
2018-05-11T20:03:37.641Z,99.90
2018-05-11T20:06:05.070Z,99.90
2018-05-11T20:08:32.539Z,99.90
2018-05-11T20:11:01.370Z,99.90
2018-05-11T20:13:28.687Z,99.90
2018-05-11T20:15:56.152Z,99.90
2018-05-11T20:18:23.586Z,99.90
2018-05-11T20:20:51.587Z,99.90
2018-05-11T20:23:19.022Z,99.90
2018-05-11T20:25:46.474Z,99.90
2018-05-11T20:28:13.930Z,99.90
2018-05-11T20:30:41.746Z,99.90
2018-05-11T20:33:09.194Z,99.90
2018-05-11T20:35:37.420Z,99.90
2018-05-11T20:38:04.878Z,99.90
2018-05-11T20:40:32.321Z,99.90
2018-05-11T20:42:59.778Z,99.90
2018-05-11T20:45:27.246Z,99.90
2018-05-11T20:47:54.722Z,99.90
2018-05-11T20:50:22.178Z,99.90
2018-05-11T20:52:49.619Z,99.90
2018-05-11T20:55:17.074Z,99.90
2018-05-11T20:57:44.542Z,99.90
2018-05-11T21:00:12.264Z,99.90
2018-05-11T21:02:39.717Z,99.90
2018-05-11T21:05:07.151Z,99.90
2018-05-11T21:07:35.374Z,99.90
2018-05-11T21:10:03.396Z,99.90
2018-05-11T21:12:32.206Z,99.90
2018-05-11T21:14:59.654Z,99.90
2018-05-11T21:17:27.093Z,99.90
2018-05-11T21:19:55.333Z,99.90
2018-05-11T21:22:22.766Z,99.90
2018-05-11T21:24:50.227Z,99.90
2018-05-11T21:27:17.687Z,99.90
2018-05-11T21:29:45.586Z,99.90
2018-05-11T21:32:13.030Z,99.90
2018-05-11T21:34:40.488Z,99.90
2018-05-11T21:37:07.934Z,99.90
2018-05-11T21:39:35.390Z,99.90
2018-05-11T21:42:03.607Z,99.90
2018-05-11T21:44:31.836Z,99.90
2018-05-11T21:46:59.301Z,99.90
2018-05-11T21:49:26.738Z,99.90
2018-05-11T21:51:54.200Z,99.90
2018-05-11T21:54:21.639Z,99.90
2018-05-11T21:56:49.094Z,99.90
2018-05-11T21:59:16.550Z,99.90
2018-05-11T22:01:44.006Z,99.90
2018-05-11T22:04:11.446Z,99.90
2018-05-11T22:06:39.658Z,99.90
2018-05-11T22:09:07.115Z,99.90
2018-05-11T22:11:34.566Z,99.90
2018-05-11T22:14:02.766Z,99.90
2018-05-11T22:16:30.211Z,99.90
2018-05-11T22:18:57.675Z,99.90
2018-05-11T22:21:25.115Z,99.90
2018-05-11T22:23:52.568Z,99.90
2018-05-11T22:26:20.019Z,99.90
2018-05-11T22:28:47.484Z,99.90
2018-05-11T22:31:15.343Z,99.90
2018-05-11T22:33:42.800Z,99.90
2018-05-11T22:36:10.247Z,99.90
2018-05-11T22:38:37.706Z,99.90
2018-05-11T22:41:05.156Z,99.90
2018-05-11T22:43:32.620Z,99.90
2018-05-11T22:46:00.060Z,99.90
2018-05-11T22:48:28.289Z,99.90
2018-05-11T22:50:55.729Z,99.90
2018-05-11T22:53:23.602Z,99.90
2018-05-11T22:55:51.043Z,99.90
2018-05-11T22:58:18.511Z,99.90
2018-05-11T23:00:45.960Z,99.90
2018-05-11T23:03:14.774Z,99.90
2018-05-11T23:05:42.227Z,99.90
2018-05-11T23:08:09.682Z,99.90
2018-05-11T23:10:37.611Z,99.90
2018-05-11T23:13:05.063Z,99.90
2018-05-11T23:15:33.277Z,99.90
2018-05-11T23:18:00.722Z,99.90
2018-05-11T23:20:28.177Z,99.90
2018-05-11T23:22:55.634Z,99.90
2018-05-11T23:25:23.106Z,99.90
2018-05-11T23:27:50.563Z,99.90
2018-05-11T23:30:18.004Z,99.90
2018-05-11T23:32:45.453Z,99.90
2018-05-11T23:35:12.932Z,99.90
2018-05-11T23:37:40.367Z,99.90
2018-05-11T23:40:08.041Z,99.90
2018-05-11T23:42:35.535Z,99.90
2018-05-11T23:45:03.623Z,99.90
2018-05-11T23:47:31.070Z,99.90
2018-05-11T23:49:58.518Z,99.90
2018-05-11T23:52:25.982Z,99.90
2018-05-11T23:54:53.422Z,99.90
2018-05-11T23:57:20.882Z,99.90
2018-05-11T23:59:48.337Z,99.90
